RJOA/HIJ METAR and TAF weather

Enter ICAO airport designator
Station Type Date Time Source
RJOA METAR 2018/12/18 13:00 UTC NOAA

RJOA 181300Z 31004KT 9999 FEW020 SCT030 05/M01 Q1021


Station Type Date Time Source
RJOA Decoded METAR 2018/12/18 13:00 UTC NOAA

Hiroshima Airport, Japan (RJOA) 34-26N 132-55E 334M
Dec 18, 2018 - 08:00 AM EST / 2018.12.18 1300 UTC
Wind: from the NW (310 degrees) at 5 MPH (4 KT):0
Visibility: greater than 7 mile(s):0
Sky conditions: partly cloudy
Temperature: 41 F (5 C)
Dew Point: 30 F (-1 C)
Relative Humidity: 65%
Pressure (altimeter): 30.15 in. Hg (1021 hPa)
ob: RJOA 181300Z 31004KT 9999 FEW020 SCT030 05/M01 Q1021
cycle: 13

Station Type Date Time Source
RJOA TAF 2018/12/18 18:29 UTC NOAA

TAF RJOA 181710Z 1818/2000 30005KT 9999 FEW020 SCT040


Example: see airport list